Time;durP1;ratioP1;P1;durP2;ratioP2;P2;SDS_P1;SDS_P2;PMS_P1;PMS_P2;Temp;Humidity;BMP_temperature;BMP_pressure;BME280_temperature;BME280_humidity;BME280_pressure;Samples;Min_cycle;Max_cycle;Signal;HPM_P1;HPM_P2
2021/04/13 00:00:01;;;;;;;2.42;1.85;;;7.80;61.00;;;;;;5029376;28;20058;-88
2021/04/13 00:02:38;;;;;;;2.17;1.70;;;7.80;61.00;;;;;;5046691;28;20028;-88
2021/04/13 00:05:21;;;;;;;2.25;1.90;;;7.80;61.10;;;;;;5038770;28;20036;-88
2021/04/13 00:07:48;;;;;;;2.22;1.88;;;7.80;61.20;;;;;;5047095;28;20127;-88
2021/04/13 00:10:37;;;;;;;2.10;1.90;;;7.70;61.10;;;;;;5043341;28;20033;-88
2021/04/13 00:13:04;;;;;;;2.63;2.20;;;7.70;61.30;;;;;;5039994;28;20491;-88
2021/04/13 00:15:44;;;;;;;2.13;1.80;;;7.70;61.20;;;;;;5036103;28;20055;-88
2021/04/13 00:18:13;;;;;;;1.92;1.67;;;7.60;61.30;;;;;;5038102;28;20020;-88
2021/04/13 00:20:43;;;;;;;1.90;1.80;;;7.60;61.30;;;;;;5038972;28;20052;-88
2021/04/13 00:23:09;;;;;;;2.15;1.80;;;7.60;61.30;;;;;;5038316;28;20035;-88
2021/04/13 00:25:38;;;;;;;3.28;1.95;;;7.50;61.30;;;;;;5039443;28;20020;-88
2021/04/13 00:28:06;;;;;;;2.05;1.80;;;7.50;61.40;;;;;;5054488;28;20029;-87
2021/04/13 00:31:03;;;;;;;1.92;1.73;;;7.50;61.40;;;;;;5035282;28;20037;-88
2021/04/13 00:33:33;;;;;;;2.17;1.77;;;7.50;61.50;;;;;;5058177;28;20074;-87
2021/04/13 00:36:11;;;;;;;2.72;1.92;;;7.50;61.40;;;;;;5039294;28;20017;-87
2021/04/13 00:38:41;;;;;;;1.80;1.70;;;7.40;61.40;;;;;;5054717;28;20128;-88
2021/04/13 00:41:23;;;;;;;1.85;1.75;;;7.40;61.40;;;;;;5062991;28;20032;-88
2021/04/13 00:44:10;;;;;;;1.98;1.73;;;7.40;61.60;;;;;;5030913;28;20073;-88
2021/04/13 00:46:42;;;;;;;2.10;1.67;;;7.30;61.60;;;;;;5046054;28;20025;-88
2021/04/13 00:49:10;;;;;;;2.25;1.75;;;7.30;61.50;;;;;;5053417;28;20029;-88
2021/04/13 00:51:58;;;;;;;2.70;2.17;;;7.30;61.60;;;;;;5033535;28;20025;-88
2021/04/13 00:54:38;;;;;;;1.67;1.58;;;7.30;61.70;;;;;;5059690;28;20028;-88
2021/04/13 00:57:14;;;;;;;2.25;1.80;;;7.30;61.70;;;;;;5056761;28;20477;-88
2021/04/13 00:59:41;;;;;;;2.45;1.90;;;7.30;61.70;;;;;;5032846;28;20051;-88
2021/04/13 01:02:13;;;;;;;1.88;1.67;;;7.20;61.60;;;;;;5033025;28;20484;-88
2021/04/13 01:04:51;;;;;;;2.05;1.90;;;7.20;61.70;;;;;;5034761;28;20064;-87
2021/04/13 01:07:26;;;;;;;2.03;1.83;;;7.20;61.70;;;;;;5047644;28;20063;-88
2021/04/13 01:10:07;;;;;;;1.73;1.63;;;7.20;61.80;;;;;;5030304;28;20052;-88
2021/04/13 01:12:36;;;;;;;3.70;1.90;;;7.20;61.80;;;;;;5059132;28;20127;-88
2021/04/13 01:15:05;;;;;;;2.65;1.75;;;7.20;61.80;;;;;;5044740;28;20128;-88
2021/04/13 01:17:31;;;;;;;2.83;1.75;;;7.20;61.90;;;;;;5062052;28;20122;-88
2021/04/13 01:20:15;;;;;;;1.90;1.73;;;7.10;61.80;;;;;;5038445;28;20465;-88
2021/04/13 01:25:40;;;;;;;2.20;1.88;;;7.10;61.90;;;;;;5033574;28;20040;-87
2021/04/13 01:28:07;;;;;;;1.90;1.70;;;7.10;61.90;;;;;;5045181;28;20060;-87
2021/04/13 01:30:39;;;;;;;2.10;1.90;;;7.10;61.90;;;;;;5038722;28;20045;-88
2021/04/13 01:33:22;;;;;;;1.98;1.80;;;7.10;62.00;;;;;;5040233;28;20037;-87
2021/04/13 01:35:55;;;;;;;2.35;1.90;;;7.00;62.10;;;;;;5070829;28;20431;-88
2021/04/13 01:38:28;;;;;;;2.33;1.90;;;7.00;62.00;;;;;;5045417;28;20028;-88
2021/04/13 01:41:21;;;;;;;2.08;1.77;;;7.00;62.00;;;;;;5049154;28;20071;-88
2021/04/13 01:43:48;;;;;;;2.47;1.98;;;7.00;62.10;;;;;;5041938;28;20056;-88
2021/04/13 01:46:16;;;;;;;1.95;1.75;;;6.90;62.00;;;;;;5039535;28;20365;-87
2021/04/13 01:48:44;;;;;;;2.08;1.67;;;6.90;62.10;;;;;;5043514;28;20075;-88
2021/04/13 01:51:12;;;;;;;2.08;1.83;;;6.90;62.10;;;;;;5069074;28;20044;-86
2021/04/13 01:53:45;;;;;;;2.08;1.58;;;6.90;62.20;;;;;;5045340;28;20032;-88
2021/04/13 01:56:40;;;;;;;1.80;1.70;;;6.90;62.20;;;;;;5057611;28;20025;-88
2021/04/13 01:59:24;;;;;;;2.40;1.80;;;6.90;62.40;;;;;;5051959;28;20040;-88
2021/04/13 02:01:55;;;;;;;2.03;1.70;;;6.90;62.30;;;;;;5044107;28;20099;-87
2021/04/13 02:04:34;;;;;;;1.92;1.60;;;6.80;62.20;;;;;;5056821;28;20159;-88
2021/04/13 02:07:18;;;;;;;1.77;1.58;;;6.80;62.30;;;;;;5054365;28;20530;-88
2021/04/13 02:09:51;;;;;;;1.77;1.50;;;6.80;62.20;;;;;;5075712;28;20032;-88
2021/04/13 02:12:24;;;;;;;1.98;1.50;;;6.80;62.30;;;;;;5049430;28;20028;-87
2021/04/13 02:15:01;;;;;;;2.95;1.70;;;6.80;62.40;;;;;;5048569;28;20057;-87
2021/04/13 02:17:36;;;;;;;1.67;1.58;;;6.80;62.40;;;;;;5038403;28;20036;-88
2021/04/13 02:20:08;;;;;;;2.38;1.75;;;6.70;62.40;;;;;;5025233;28;20108;-87
2021/04/13 02:22:37;;;;;;;1.85;1.55;;;6.70;62.40;;;;;;5062302;28;20534;-86
2021/04/13 02:25:05;;;;;;;1.60;1.50;;;6.70;62.40;;;;;;5046859;28;20031;-86
2021/04/13 02:27:37;;;;;;;1.73;1.63;;;6.70;62.40;;;;;;5038034;28;20037;-87
2021/04/13 02:30:15;;;;;;;1.63;1.50;;;6.70;62.40;;;;;;5037495;28;20039;-87
2021/04/13 02:32:47;;;;;;;1.98;1.75;;;6.70;62.50;;;;;;5067956;28;20044;-87
2021/04/13 02:35:26;;;;;;;1.50;1.40;;;6.70;62.50;;;;;;5052602;28;20594;-86
2021/04/13 02:37:54;;;;;;;2.78;1.88;;;6.60;62.50;;;;;;5045066;28;20107;-86
2021/04/13 02:40:29;;;;;;;1.80;1.60;;;6.60;62.50;;;;;;5029525;28;20035;-87
2021/04/13 02:43:00;;;;;;;1.95;1.60;;;6.60;62.50;;;;;;5037683;28;20103;-87
2021/04/13 02:45:42;;;;;;;2.08;1.50;;;6.60;62.50;;;;;;5042892;28;20475;-87
2021/04/13 02:48:12;;;;;;;1.63;1.45;;;6.60;62.60;;;;;;5063048;28;20489;-87
2021/04/13 02:50:44;;;;;;;2.25;1.67;;;6.50;62.50;;;;;;5028144;28;20032;-87
2021/04/13 02:53:15;;;;;;;1.75;1.65;;;6.50;62.60;;;;;;5054188;28;20461;-87
2021/04/13 02:55:55;;;;;;;1.80;1.70;;;6.50;62.60;;;;;;5074164;28;20090;-88
2021/04/13 02:58:26;;;;;;;1.50;1.40;;;6.50;62.60;;;;;;5033988;28;20036;-87
2021/04/13 03:00:54;;;;;;;2.25;1.63;;;6.50;62.60;;;;;;5027095;28;20115;-87
2021/04/13 03:03:25;;;;;;;1.70;1.60;;;6.50;62.60;;;;;;5027737;28;20025;-87
2021/04/13 03:05:53;;;;;;;2.17;1.83;;;6.40;62.60;;;;;;5055595;28;20020;-86
2021/04/13 03:08:20;;;;;;;3.08;1.60;;;6.40;62.70;;;;;;5028360;28;20401;-87
2021/04/13 03:10:55;;;;;;;1.80;1.70;;;6.40;62.60;;;;;;5051781;28;20028;-87
2021/04/13 03:13:25;;;;;;;2.15;1.75;;;6.40;62.70;;;;;;5063451;28;20492;-87
2021/04/13 03:15:57;;;;;;;1.60;1.50;;;6.40;62.70;;;;;;5025422;28;20381;-87
2021/04/13 03:18:54;;;;;;;2.20;1.70;;;6.30;62.70;;;;;;5040171;28;20171;-87
2021/04/13 03:21:24;;;;;;;2.00;1.80;;;6.30;62.80;;;;;;5024891;28;20064;-87
2021/04/13 03:23:53;;;;;;;1.98;1.65;;;6.30;62.70;;;;;;5048334;28;20028;-87
2021/04/13 03:26:30;;;;;;;1.63;1.52;;;6.30;62.70;;;;;;5054251;28;20103;-87
2021/04/13 03:29:07;;;;;;;1.80;1.70;;;6.30;62.80;;;;;;5031405;28;20040;-87
2021/04/13 03:31:35;;;;;;;2.25;1.65;;;6.30;62.80;;;;;;5041869;28;20087;-87
2021/04/13 03:34:06;;;;;;;1.88;1.70;;;6.20;62.80;;;;;;5054572;28;20037;-87
2021/04/13 03:36:32;;;;;;;1.77;1.60;;;6.20;62.80;;;;;;5036559;28;20063;-86
2021/04/13 03:39:06;;;;;;;1.92;1.70;;;6.20;62.80;;;;;;5046530;28;20064;-86
2021/04/13 03:41:32;;;;;;;2.10;1.80;;;6.20;62.90;;;;;;5038279;28;20108;-86
2021/04/13 03:44:02;;;;;;;2.10;1.60;;;6.20;62.90;;;;;;5037267;28;20052;-87
2021/04/13 03:46:37;;;;;;;2.90;1.67;;;6.20;62.90;;;;;;5066998;28;20025;-87
2021/04/13 03:49:07;;;;;;;1.70;1.60;;;6.10;62.90;;;;;;5038691;28;20461;-86
2021/04/13 03:51:39;;;;;;;1.95;1.75;;;6.10;62.90;;;;;;5059436;28;20033;-87
2021/04/13 03:54:26;;;;;;;2.15;1.65;;;6.10;62.90;;;;;;5061231;28;20162;-87
2021/04/13 03:56:52;;;;;;;1.98;1.77;;;6.10;63.00;;;;;;5066822;28;20056;-87
2021/04/13 03:59:25;;;;;;;2.00;1.80;;;6.10;62.90;;;;;;5043599;28;20029;-87
2021/04/13 04:01:51;;;;;;;1.75;1.60;;;6.00;62.90;;;;;;5052517;28;20044;-87
2021/04/13 04:04:32;;;;;;;2.05;1.83;;;6.00;62.90;;;;;;5021689;28;20021;-87
2021/04/13 04:07:34;;;;;;;2.20;1.80;;;6.00;63.00;;;;;;5049408;28;20150;-87
2021/04/13 04:10:00;;;;;;;2.00;1.90;;;6.00;63.10;;;;;;5038906;28;20392;-87
2021/04/13 04:12:33;;;;;;;3.53;2.05;;;6.00;63.00;;;;;;5012909;28;20096;-87
2021/04/13 04:15:12;;;;;;;2.17;2.00;;;5.90;63.00;;;;;;5045924;28;20049;-87
2021/04/13 04:17:47;;;;;;;1.95;1.70;;;6.00;63.10;;;;;;5034944;28;20071;-87
2021/04/13 04:20:14;;;;;;;2.45;1.90;;;5.90;63.10;;;;;;5044221;28;20480;-87
2021/04/13 04:22:52;;;;;;;2.10;1.90;;;5.90;63.10;;;;;;5051696;28;20029;-87
2021/04/13 04:25:32;;;;;;;1.85;1.73;;;5.90;63.20;;;;;;5048511;28;20020;-87
2021/04/13 04:28:01;;;;;;;2.58;1.83;;;5.90;63.20;;;;;;5038877;28;20021;-88
2021/04/13 04:30:30;;;;;;;2.25;2.05;;;5.90;63.20;;;;;;5023848;28;20461;-87
2021/04/13 04:32:58;;;;;;;2.13;1.92;;;5.90;63.20;;;;;;5040482;28;20483;-87
2021/04/13 04:35:39;;;;;;;2.50;1.90;;;5.80;63.10;;;;;;5029823;28;20029;-87
2021/04/13 04:38:14;;;;;;;3.10;1.88;;;5.80;63.20;;;;;;5032916;28;20025;-85
2021/04/13 04:40:56;;;;;;;2.03;1.83;;;5.80;63.20;;;;;;5021079;28;20017;-87
2021/04/13 04:44:01;;;;;;;3.65;1.90;;;5.80;63.20;;;;;;5040993;28;20024;-84
2021/04/13 04:46:39;;;;;;;1.98;1.70;;;5.80;63.30;;;;;;5042416;28;20029;-89
2021/04/13 04:49:10;;;;;;;1.90;1.80;;;5.70;63.10;;;;;;5036388;28;20024;-85
2021/04/13 04:51:37;;;;;;;2.30;1.83;;;5.70;63.10;;;;;;5052149;28;20469;-85
2021/04/13 04:54:04;;;;;;;2.10;1.52;;;5.70;63.20;;;;;;5035346;28;20526;-85
2021/04/13 04:56:30;;;;;;;2.67;2.00;;;5.70;63.30;;;;;;5050653;28;20112;-84
2021/04/13 04:58:56;;;;;;;2.35;1.85;;;5.70;63.30;;;;;;5020683;28;20115;-81
2021/04/13 05:01:21;;;;;;;3.20;2.30;;;5.70;64.00;;;;;;5022356;28;20035;-82
2021/04/13 05:03:47;;;;;;;2.85;2.05;;;5.70;63.40;;;;;;5033519;28;20354;-85
2021/04/13 05:06:13;;;;;;;2.53;2.00;;;5.60;63.30;;;;;;5039711;28;20419;-82
2021/04/13 05:08:39;;;;;;;2.45;2.00;;;5.60;63.30;;;;;;5037854;28;20416;-82
2021/04/13 05:11:05;;;;;;;2.47;2.20;;;5.60;63.30;;;;;;5029536;28;20051;-84
2021/04/13 05:13:31;;;;;;;3.03;2.10;;;5.60;63.30;;;;;;5032870;28;20029;-84
2021/04/13 05:15:58;;;;;;;2.50;2.30;;;5.60;63.30;;;;;;5050291;28;20119;-83
2021/04/13 05:18:24;;;;;;;2.20;2.00;;;5.60;63.40;;;;;;5033750;28;20033;-83
2021/04/13 05:20:53;;;;;;;2.58;2.25;;;5.60;63.40;;;;;;5046199;28;20056;-86
2021/04/13 05:23:19;;;;;;;2.70;1.98;;;5.60;63.40;;;;;;5039085;28;20029;-83
2021/04/13 05:25:45;;;;;;;2.60;2.20;;;5.50;63.40;;;;;;5022826;28;20025;-81
2021/04/13 05:28:11;;;;;;;2.13;1.88;;;5.50;63.40;;;;;;5023629;28;20434;-85
2021/04/13 05:30:37;;;;;;;2.47;1.80;;;5.50;63.40;;;;;;5050547;28;20029;-85
2021/04/13 05:33:04;;;;;;;2.60;1.90;;;5.50;63.40;;;;;;5031409;28;20154;-86
2021/04/13 05:35:30;;;;;;;2.58;1.98;;;5.50;63.40;;;;;;5040102;28;20036;-88
2021/04/13 05:37:58;;;;;;;2.33;2.10;;;5.50;63.50;;;;;;5053130;28;20033;-84
2021/04/13 05:40:29;;;;;;;2.97;2.13;;;5.50;63.60;;;;;;5039205;28;20025;-84
2021/04/13 05:42:56;;;;;;;2.97;2.10;;;5.50;63.50;;;;;;5039900;28;20063;-85
2021/04/13 05:45:24;;;;;;;2.40;2.05;;;5.40;63.50;;;;;;5042930;28;20040;-85
2021/04/13 05:47:50;;;;;;;2.83;1.95;;;5.40;63.50;;;;;;5036062;28;20115;-84
2021/04/13 05:50:22;;;;;;;2.33;2.10;;;5.40;63.50;;;;;;5038339;28;20426;-85
2021/04/13 05:52:48;;;;;;;3.33;2.30;;;5.40;63.60;;;;;;5041921;28;20119;-83
2021/04/13 05:55:17;;;;;;;2.60;1.92;;;5.40;63.60;;;;;;5058007;28;20425;-84
2021/04/13 05:57:45;;;;;;;2.47;2.08;;;5.40;63.60;;;;;;5050053;28;20036;-87
2021/04/13 06:00:12;;;;;;;3.10;2.35;;;5.40;63.60;;;;;;5052274;28;20029;-85
2021/04/13 06:02:40;;;;;;;2.35;2.15;;;5.40;63.60;;;;;;5027639;28;20032;-87
2021/04/13 06:05:11;;;;;;;2.88;2.25;;;5.40;63.70;;;;;;5028914;28;20082;-84
2021/04/13 06:07:37;;;;;;;3.88;2.30;;;5.40;63.70;;;;;;5046000;28;20063;-83
2021/04/13 06:10:04;;;;;;;4.13;2.15;;;5.40;63.60;;;;;;5028602;28;20060;-84
2021/04/13 06:12:30;;;;;;;2.78;1.98;;;5.40;63.70;;;;;;5034273;28;20043;-81
2021/04/13 06:14:56;;;;;;;3.22;2.15;;;5.30;63.60;;;;;;5066079;28;20048;-81
2021/04/13 06:17:21;;;;;;;2.42;2.22;;;5.30;63.70;;;;;;5040407;28;20032;-81
2021/04/13 06:19:47;;;;;;;3.25;1.88;;;5.40;63.80;;;;;;5033221;28;20033;-81
2021/04/13 06:22:13;;;;;;;2.88;2.10;;;5.30;63.70;;;;;;5037258;28;20477;-81
2021/04/13 06:24:39;;;;;;;2.60;2.17;;;5.30;63.70;;;;;;5019965;28;20083;-81
2021/04/13 06:27:06;;;;;;;2.10;1.77;;;5.30;63.70;;;;;;5020695;28;20033;-81
2021/04/13 06:29:34;;;;;;;3.03;2.22;;;5.40;63.80;;;;;;5020698;28;20553;-81
2021/04/13 06:32:00;;;;;;;2.75;2.17;;;5.30;63.70;;;;;;5036518;28;20029;-81
2021/04/13 06:34:25;;;;;;;3.40;2.33;;;5.30;63.70;;;;;;5066651;28;20108;-81
2021/04/13 06:36:51;;;;;;;2.45;2.22;;;5.40;63.80;;;;;;5013194;28;20170;-81
2021/04/13 06:39:17;;;;;;;2.35;1.95;;;5.30;63.80;;;;;;5030572;28;20029;-80
2021/04/13 06:42:02;;;;;;;2.80;2.17;;;5.30;63.80;;;;;;5037794;28;20032;-81
2021/04/13 06:44:45;;;;;;;2.10;1.95;;;5.30;63.90;;;;;;5058974;28;20104;-80
2021/04/13 06:47:30;;;;;;;3.15;2.22;;;5.30;63.90;;;;;;5060569;28;20431;-83
2021/04/13 06:50:29;;;;;;;2.50;2.30;;;5.30;63.90;;;;;;5026851;28;20040;-82
2021/04/13 06:53:05;;;;;;;3.60;2.08;;;5.30;63.90;;;;;;5056277;28;20471;-82
2021/04/13 06:55:49;;;;;;;2.40;2.08;;;5.30;63.80;;;;;;5037375;28;20036;-83
2021/04/13 06:58:32;;;;;;;2.03;1.75;;;5.30;63.90;;;;;;5037159;28;20048;-83
2021/04/13 07:01:28;;;;;;;2.20;2.00;;;5.30;63.80;;;;;;5050791;28;20143;-82
2021/04/13 07:04:03;;;;;;;2.47;2.17;;;5.30;63.90;;;;;;5034093;28;20512;-83
2021/04/13 07:06:32;;;;;;;2.20;2.00;;;5.30;63.90;;;;;;5025401;28;20029;-83
2021/04/13 07:09:31;;;;;;;2.03;1.75;;;5.40;63.90;;;;;;5034587;28;20477;-83
2021/04/13 07:12:39;;;;;;;2.40;2.00;;;5.40;64.10;;;;;;5036598;28;20116;-83
2021/04/13 07:15:16;;;;;;;3.08;2.25;;;5.40;64.10;;;;;;4982670;28;20046;-83
2021/04/13 07:17:57;;;;;;;4.20;2.20;;;5.40;63.90;;;;;;5034174;28;20482;-85
2021/04/13 07:20:28;;;;;;;2.38;2.05;;;5.40;64.00;;;;;;5031951;28;20040;-83
2021/04/13 07:23:05;;;;;;;3.08;2.08;;;5.40;64.00;;;;;;5056102;28;20024;-83
2021/04/13 07:25:43;;;;;;;3.25;2.42;;;5.40;64.60;;;;;;5040159;28;20078;-82
2021/04/13 07:28:15;;;;;;;2.95;2.10;;;5.50;64.10;;;;;;5029730;28;20024;-83
2021/04/13 07:30:50;;;;;;;2.92;2.13;;;5.50;64.00;;;;;;5036257;28;20162;-83
2021/04/13 07:33:24;;;;;;;2.20;2.00;;;5.50;64.00;;;;;;5063427;28;20122;-82
2021/04/13 07:35:54;;;;;;;2.40;1.90;;;5.50;64.00;;;;;;5060935;28;20060;-82
2021/04/13 07:38:26;;;;;;;1.98;1.63;;;5.50;64.10;;;;;;5062562;28;20050;-83
2021/04/13 07:41:08;;;;;;;3.10;2.10;;;5.50;64.00;;;;;;5043698;28;20035;-82
2021/04/13 07:43:46;;;;;;;2.05;1.85;;;5.50;64.10;;;;;;5036555;28;20036;-83
2021/04/13 07:46:35;;;;;;;2.65;1.98;;;5.60;64.20;;;;;;5034011;28;20028;-83
2021/04/13 07:49:12;;;;;;;2.45;2.10;;;5.60;64.20;;;;;;5056343;28;20033;-83
2021/04/13 07:51:55;;;;;;;2.67;1.70;;;5.60;64.20;;;;;;5075508;28;20101;-82
2021/04/13 07:55:05;;;;;;;3.83;1.80;;;5.60;64.20;;;;;;5038744;28;20527;-82
2021/04/13 07:57:45;;;;;;;1.95;1.70;;;5.60;64.30;;;;;;5016829;28;20036;-83
2021/04/13 08:00:28;;;;;;;1.73;1.60;;;5.70;64.30;;;;;;5048837;28;20021;-83
2021/04/13 08:03:22;;;;;;;3.50;1.88;;;5.70;64.30;;;;;;5042990;28;20044;-82
2021/04/13 08:05:53;;;;;;;1.98;1.77;;;5.70;64.50;;;;;;5027742;28;20032;-84
2021/04/13 08:08:38;;;;;;;2.30;2.10;;;5.70;64.40;;;;;;5037932;28;20021;-81
2021/04/13 08:11:19;;;;;;;2.75;1.90;;;5.80;64.60;;;;;;5035821;28;20041;-81
2021/04/13 08:13:49;;;;;;;1.60;1.50;;;5.80;64.40;;;;;;5032251;28;20044;-80
2021/04/13 08:16:31;;;;;;;1.73;1.60;;;5.80;64.40;;;;;;5052722;28;20056;-82
2021/04/13 08:19:31;;;;;;;1.52;1.42;;;5.90;64.60;;;;;;5024028;28;20025;-81
2021/04/13 08:22:07;;;;;;;1.73;1.58;;;5.90;64.60;;;;;;5018764;28;20035;-81
2021/04/13 08:24:38;;;;;;;1.55;1.40;;;6.00;64.50;;;;;;5035245;28;20568;-81
2021/04/13 08:27:41;;;;;;;2.13;1.60;;;6.00;64.40;;;;;;5046091;28;20025;-82
2021/04/13 08:30:28;;;;;;;1.77;1.52;;;6.00;64.60;;;;;;5043202;28;20093;-82
2021/04/13 08:33:06;;;;;;;2.35;1.48;;;6.10;64.50;;;;;;5024304;28;20028;-83
2021/04/13 08:35:34;;;;;;;3.30;1.92;;;6.10;64.50;;;;;;5061992;28;20082;-82
2021/04/13 08:38:20;;;;;;;1.80;1.40;;;6.20;64.40;;;;;;5025100;28;20037;-81
2021/04/13 08:41:04;;;;;;;;;;;6.20;64.50;;;;;;5047047;28;20085;-82
2021/04/13 08:43:50;;;;;;;2.63;1.50;;;6.20;64.20;;;;;;5037598;28;19908;-82
2021/04/13 08:46:46;;;;;;;1.58;1.30;;;6.30;64.10;;;;;;5054724;28;20055;-82
2021/04/13 08:49:32;;;;;;;1.65;1.17;;;6.40;64.30;;;;;;5054615;28;20028;-82
2021/04/13 08:52:29;;;;;;;1.40;1.30;;;6.40;64.20;;;;;;5040494;28;20033;-81
2021/04/13 08:55:09;;;;;;;1.67;1.38;;;6.50;64.20;;;;;;5018303;28;20036;-83
2021/04/13 08:57:40;;;;;;;1.77;1.30;;;6.60;64.30;;;;;;5045100;28;20040;-82
2021/04/13 09:00:30;;;;;;;1.60;1.25;;;6.70;64.10;;;;;;5038094;28;20025;-82
2021/04/13 09:03:06;;;;;;;1.40;1.30;;;6.70;64.10;;;;;;5054718;28;20029;-82
2021/04/13 09:05:35;;;;;;;1.10;1.10;;;6.80;63.90;;;;;;5034651;28;20025;-82
2021/04/13 09:08:25;;;;;;;2.50;1.55;;;6.90;63.90;;;;;;5052032;28;20040;-81
2021/04/13 09:11:20;;;;;;;2.53;1.48;;;7.00;64.00;;;;;;5045913;28;20037;-83
2021/04/13 09:14:11;;;;;;;1.50;1.40;;;7.10;63.90;;;;;;5050289;28;20028;-80
2021/04/13 09:16:42;;;;;;;1.45;1.35;;;7.20;63.70;;;;;;4982733;28;20048;-82
2021/04/13 09:19:20;;;;;;;1.20;1.10;;;7.30;63.70;;;;;;5050814;28;20488;-81
2021/04/13 09:21:52;;;;;;;1.23;1.10;;;7.30;63.70;;;;;;5051997;28;20070;-82
2021/04/13 09:24:42;;;;;;;1.20;1.20;;;7.40;63.60;;;;;;5037997;28;20024;-84
2021/04/13 09:27:11;;;;;;;1.30;1.20;;;7.50;63.70;;;;;;5044855;28;20389;-81
2021/04/13 09:29:50;;;;;;;2.40;1.42;;;7.60;63.50;;;;;;5040122;28;20467;-84
2021/04/13 09:32:25;;;;;;;1.30;1.13;;;7.70;63.70;;;;;;5054138;28;20025;-82
2021/04/13 09:35:00;;;;;;;1.33;1.20;;;7.80;63.70;;;;;;5048720;28;20029;-81
2021/04/13 09:37:50;;;;;;;1.48;1.38;;;7.90;63.70;;;;;;5037206;28;20064;-81
2021/04/13 09:40:24;;;;;;;1.00;1.00;;;8.00;63.70;;;;;;5041806;28;20028;-81
2021/04/13 09:43:07;;;;;;;1.10;1.10;;;8.20;63.70;;;;;;5043989;28;20039;-81
2021/04/13 09:45:38;;;;;;;1.55;1.20;;;8.20;63.70;;;;;;5034612;28;20075;-81
2021/04/13 09:48:26;;;;;;;1.65;1.05;;;8.40;63.80;;;;;;5067470;28;20483;-82
2021/04/13 09:51:15;;;;;;;1.20;1.20;;;8.50;63.80;;;;;;5042109;28;20057;-81
2021/04/13 09:54:19;;;;;;;1.45;1.15;;;8.60;63.60;;;;;;5020966;28;20079;-80
2021/04/13 09:57:04;;;;;;;1.42;1.00;;;8.70;63.60;;;;;;5014868;28;20082;-81
2021/04/13 10:00:06;;;;;;;1.13;1.02;;;8.80;63.50;;;;;;5057567;28;20024;-80
2021/04/13 10:02:43;;;;;;;1.13;1.13;;;8.90;63.50;;;;;;5045736;28;20041;-81
2021/04/13 10:05:16;;;;;;;1.17;1.15;;;9.10;63.30;;;;;;5050927;28;20104;-81
2021/04/13 10:07:51;;;;;;;1.27;1.15;;;9.20;63.40;;;;;;5064756;28;20056;-80
2021/04/13 10:10:39;;;;;;;1.45;1.08;;;9.30;63.30;;;;;;5023795;28;20029;-79
2021/04/13 10:13:43;;;;;;;1.63;1.13;;;9.40;63.30;;;;;;5032670;28;20025;-80
2021/04/13 10:16:28;;;;;;;1.23;1.17;;;9.50;63.30;;;;;;4991748;28;20110;-80
2021/04/13 10:19:18;;;;;;;1.33;1.10;;;9.60;63.10;;;;;;4977196;28;20180;-80
2021/04/13 10:21:47;;;;;;;1.63;1.20;;;9.70;63.20;;;;;;5031441;28;20037;-81
2021/04/13 10:24:32;;;;;;;0.90;0.90;;;9.80;63.10;;;;;;5039904;28;20028;-79
2021/04/13 10:27:43;;;;;;;1.60;1.00;;;9.80;63.20;;;;;;5073788;28;20473;-80
2021/04/13 10:30:40;;;;;;;1.60;1.10;;;9.90;63.30;;;;;;5036775;28;20053;-79
2021/04/13 10:33:31;;;;;;;1.05;1.02;;;10.00;63.10;;;;;;5053969;28;20075;-81
2021/04/13 10:36:17;;;;;;;1.35;1.08;;;10.10;63.20;;;;;;5031397;28;20044;-82
2021/04/13 10:39:20;;;;;;;1.40;1.30;;;10.20;63.20;;;;;;5045680;28;20068;-80
2021/04/13 10:42:01;;;;;;;1.02;1.02;;;10.30;63.20;;;;;;5036805;28;20029;-80
2021/04/13 10:45:00;;;;;;;1.33;1.10;;;10.50;63.00;;;;;;5036764;28;20032;-79
2021/04/13 10:48:10;;;;;;;2.75;1.30;;;10.50;63.00;;;;;;5065977;28;20453;-79
2021/04/13 10:51:00;;;;;;;1.10;1.00;;;10.70;63.10;;;;;;5045325;28;20060;-79
2021/04/13 10:53:38;;;;;;;1.30;1.00;;;10.80;63.10;;;;;;5036320;28;20357;-80
2021/04/13 10:56:09;;;;;;;1.35;1.10;;;10.90;63.10;;;;;;5042495;28;20024;-80
2021/04/13 10:58:41;;;;;;;1.90;1.00;;;11.00;63.10;;;;;;5052079;28;20029;-79
2021/04/13 11:01:16;;;;;;;1.00;0.90;;;11.10;63.20;;;;;;5036587;28;20029;-80
2021/04/13 11:04:13;;;;;;;1.58;1.30;;;11.20;63.10;;;;;;5068559;28;20071;-80
2021/04/13 11:06:45;;;;;;;1.60;1.30;;;11.30;63.00;;;;;;5039049;28;20028;-80
2021/04/13 11:09:42;;;;;;;1.13;1.05;;;11.40;62.80;;;;;;5048421;28;20366;-80
2021/04/13 11:12:26;;;;;;;1.00;1.00;;;11.50;62.80;;;;;;5037195;28;20422;-81
2021/04/13 11:15:07;;;;;;;0.93;0.85;;;11.60;62.70;;;;;;5055865;28;20025;-81
2021/04/13 11:18:24;;;;;;;1.60;1.20;;;11.60;62.60;;;;;;5038939;28;20094;-80
2021/04/13 11:20:56;;;;;;;;;;;11.70;62.70;;;;;;4998464;28;20044;-81
2021/04/13 11:24:03;;;;;;;1.00;0.90;;;11.80;63.00;;;;;;5027714;28;19991;-81
2021/04/13 11:26:54;;;;;;;1.05;1.00;;;11.90;62.40;;;;;;5048058;28;20031;-81
2021/04/13 11:29:34;;;;;;;1.08;1.00;;;11.90;62.40;;;;;;5051056;28;20128;-80
2021/04/13 11:32:00;;;;;;;1.10;0.98;;;12.00;62.30;;;;;;5064374;28;20065;-81
2021/04/13 11:34:28;;;;;;;1.25;1.00;;;12.10;62.20;;;;;;5035295;28;20025;-81
2021/04/13 11:37:20;;;;;;;1.00;1.00;;;12.10;62.10;;;;;;5055633;28;20078;-81
2021/04/13 11:40:10;;;;;;;1.83;0.90;;;12.20;62.00;;;;;;5052288;28;20017;-80
2021/04/13 11:42:42;;;;;;;0.90;0.90;;;12.30;62.00;;;;;;5028727;28;20025;-81
2021/04/13 11:45:41;;;;;;;1.55;0.90;;;12.40;61.90;;;;;;5049635;28;20024;-80
2021/04/13 11:48:24;;;;;;;0.85;0.85;;;12.40;61.90;;;;;;5025018;28;20056;-82
2021/04/13 11:51:28;;;;;;;1.40;0.90;;;12.50;61.90;;;;;;5035590;28;20089;-82
2021/04/13 11:53:55;;;;;;;0.90;0.90;;;12.60;62.00;;;;;;4955807;28;20129;-81
2021/04/13 11:56:21;;;;;;;0.90;0.90;;;12.70;61.80;;;;;;5055441;28;20036;-82
2021/04/13 11:59:12;;;;;;;0.82;0.80;;;12.70;61.80;;;;;;5025075;28;20358;-82
2021/04/13 12:01:40;;;;;;;0.90;0.90;;;12.80;62.00;;;;;;5054038;28;20477;-82
2021/04/13 12:04:09;;;;;;;1.00;0.90;;;12.90;61.80;;;;;;5026550;28;20376;-83
2021/04/13 12:06:49;;;;;;;1.38;0.80;;;13.00;61.80;;;;;;5038158;28;20032;-82
2021/04/13 12:09:49;;;;;;;0.82;0.82;;;13.00;61.80;;;;;;5043051;28;20029;-82
2021/04/13 12:12:30;;;;;;;1.02;0.90;;;13.10;61.80;;;;;;5037046;28;20025;-81
2021/04/13 12:15:16;;;;;;;0.90;0.85;;;13.10;61.70;;;;;;5034984;28;20040;-81
2021/04/13 12:17:43;;;;;;;1.08;0.90;;;13.20;61.70;;;;;;5008961;28;20047;-81
2021/04/13 12:20:22;;;;;;;0.88;0.88;;;13.30;61.60;;;;;;5067624;28;20040;-81
2021/04/13 12:22:49;;;;;;;0.80;0.80;;;13.30;61.50;;;;;;5048574;28;20030;-81
2021/04/13 12:25:43;;;;;;;2.72;1.10;;;13.40;61.50;;;;;;5052445;28;20025;-81
2021/04/13 12:28:10;;;;;;;1.50;0.90;;;13.40;61.60;;;;;;5048749;28;20531;-82
2021/04/13 12:30:42;;;;;;;1.35;0.82;;;13.50;61.40;;;;;;5071300;28;20025;-82
2021/04/13 12:33:26;;;;;;;0.80;0.80;;;13.50;61.40;;;;;;5038122;28;20029;-81
2021/04/13 12:36:08;;;;;;;0.82;0.82;;;13.60;61.40;;;;;;5025484;28;20036;-83
2021/04/13 12:38:43;;;;;;;0.90;0.90;;;13.60;61.30;;;;;;5042100;28;20020;-83
2021/04/13 12:41:21;;;;;;;1.33;0.93;;;13.70;61.20;;;;;;5035510;28;20056;-83
2021/04/13 12:44:00;;;;;;;1.45;0.82;;;13.70;61.10;;;;;;5038661;28;20040;-81
2021/04/13 12:46:39;;;;;;;1.40;0.90;;;13.80;61.10;;;;;;5023623;28;20389;-81
2021/04/13 12:49:12;;;;;;;1.67;1.00;;;13.80;61.00;;;;;;5037909;28;20037;-82
2021/04/13 12:52:02;;;;;;;0.80;0.80;;;13.80;60.80;;;;;;5069513;28;20025;-84
2021/04/13 12:54:38;;;;;;;0.95;0.80;;;13.90;60.70;;;;;;5034971;28;20037;-81
2021/04/13 12:57:08;;;;;;;0.90;0.82;;;13.90;60.60;;;;;;5054709;28;20031;-81
2021/04/13 12:59:35;;;;;;;0.70;0.70;;;13.90;60.60;;;;;;5042347;28;20424;-80
2021/04/13 13:02:04;;;;;;;0.90;0.75;;;13.90;60.50;;;;;;5035592;28;20107;-81
2021/04/13 13:04:41;;;;;;;1.40;0.90;;;14.00;60.50;;;;;;5054841;28;20083;-80
2021/04/13 13:07:26;;;;;;;1.17;0.80;;;14.00;60.40;;;;;;5036302;28;20029;-81
2021/04/13 13:09:52;;;;;;;1.00;0.90;;;14.00;60.10;;;;;;5035118;28;20037;-81
2021/04/13 13:12:22;;;;;;;1.35;1.10;;;14.10;60.00;;;;;;5068603;28;20363;-81
2021/04/13 13:14:50;;;;;;;1.75;0.85;;;14.10;59.80;;;;;;5065047;28;20131;-81
2021/04/13 13:17:31;;;;;;;1.10;1.00;;;14.10;59.80;;;;;;5014798;28;20049;-81
2021/04/13 13:19:57;;;;;;;1.02;0.88;;;14.10;60.30;;;;;;5033313;28;20053;-81
2021/04/13 13:22:26;;;;;;;1.55;0.82;;;14.20;59.50;;;;;;5030939;28;20030;-81
2021/04/13 13:24:53;;;;;;;0.80;0.80;;;14.20;59.30;;;;;;5024804;28;20029;-82
2021/04/13 13:27:30;;;;;;;0.93;0.77;;;14.20;59.10;;;;;;5016638;28;20374;-81
2021/04/13 13:30:01;;;;;;;1.70;0.75;;;14.20;58.90;;;;;;5020693;28;20033;-83
2021/04/13 13:32:28;;;;;;;1.40;0.88;;;14.20;58.80;;;;;;5036007;28;20025;-81
2021/04/13 13:35:00;;;;;;;1.33;1.00;;;14.30;58.80;;;;;;5029739;28;20485;-83
2021/04/13 13:37:34;;;;;;;1.10;0.90;;;14.30;58.70;;;;;;5019486;28;20105;-83
2021/04/13 13:40:04;;;;;;;1.43;0.90;;;14.30;58.70;;;;;;5020138;28;20029;-83
2021/04/13 13:42:31;;;;;;;0.80;0.70;;;14.30;58.70;;;;;;5028311;28;20359;-82
2021/04/13 13:44:59;;;;;;;1.15;0.80;;;14.30;58.60;;;;;;5022667;28;20493;-82
2021/04/13 13:47:31;;;;;;;0.93;0.90;;;14.40;58.60;;;;;;5008379;28;20056;-82